West Haven, CT (06516)

6:07 PM EDT on April 25, 2018 (GMT -0400)
Third Avenue Park | | Change Station
Active Advisory: Special Statement

Elev 13 ft 41.27 °N, 72.94 °W | Updated 1 minute ago

Overcast
Overcast
54.6 °F
Feels Like 54.6 °F
N
1.0
Wind Variable Wind from East
Gusts 7.0 mph

Today
High -- | Low -- °F
--% Chance of Precip.
Yesterday
High -- | Low -- °F
Precip. -- in
Pressure 29.71 in
Visibility 0.8 miles
Clouds Overcast 300 ft
Dew Point 54 °F
Humidity 97%
Rainfall 0.18 in
Snow Depth Not available.
5:57 AM 7:42 PM
Waxing Gibbous, 81% visible
METAR KHVN 252153Z 10008KT 3/4SM R02/4500V6000FT BR OVC003 12/12 A2971 RMK AO2 RAE21 SLP060 P0000 T01220117
Pressure 29.71 in
Visibility 0.8 miles
Clouds Overcast 300 ft
Dew Point 54 °F
Humidity 97%
Rainfall 0.18 in
Snow Depth Not available.
5:57 AM 7:42 PM
Waxing Gibbous, 81% visible
METAR KHVN 252153Z 10008KT 3/4SM R02/4500V6000FT BR OVC003 12/12 A2971 RMK AO2 RAE21 SLP060 P0000 T01220117

Get Your Daily Forecast Email!

Thanks for signing up!

Be on the lookout for a verification email in your inbox.

You'll start receiving severe weather alerts in your inbox..

×

10-Day Weather Forecast

Almanac

Astronomy

Apr. 25, 2018 Rise Set
Actual Time
Civil Twilight
Nautical Twilight
Astronomical Twilight
Moon
Length of Visible Light
Length of Day
Tomorrow will be .
, % of the Moon is Illuminated

Today's Extremes

State Highs State Lows

Community

WunderPhotos

Category 6

Welcome to Category 6. This is the collective home for Weather Underground's featured writeups by Dr. Jeff Masters (right), Bob Henson (left), Chris Burt, and other regular contributors.

Nearby

Air Quality

  Air Quality AQ Index Pollutant
Not available.

Snow Depth

Station Depth Elevation

Earthquake Activity

City Distance Mag. Time & Date
Minimum magnitude displayed is 2.5.

Coastal Water Temperatures

Place Temperature

Stations

Nearby Weather Stations

Station Location Temp. Windchill Dew Point Humidity Wind Precip. Elev Updated Type
                   

Watches & Warnings

Special Statement
Issued: 4:30 PM EDT Apr. 25, 2018 – National Weather Service

Fog will continue to be widespread through the tri-state area late
this afternoon through the evening commute. Expect the visibility
to be generally less than one mile, and locally a quarter mile or
less during this time.

If driving, exercise extra caution as there will be sudden
reductions in visibility.